Time;durP1;ratioP1;P1;durP2;ratioP2;P2;SDS_P1;SDS_P2;PMS_P1;PMS_P2;Temp;Humidity;BMP_temperature;BMP_pressure;BME280_temperature;BME280_humidity;BME280_pressure;Samples;Min_cycle;Max_cycle;Signal;HPM_P1;HPM_P2
2022/11/08 00:01:57;;;;;;;2.80;0.47;;;16.30;60.00;;;;;;20662982;28;20121;-79
2022/11/08 00:22:19;;;;;;;3.45;0.73;;;16.30;60.10;;;;;;20660573;28;20046;-79
2022/11/08 00:32:23;;;;;;;1.10;0.52;;;16.20;60.10;;;;;;20656811;28;20062;-80
2022/11/08 00:42:24;;;;;;;1.33;0.77;;;16.20;60.20;;;;;;20654778;28;20072;-81
2022/11/08 00:52:25;;;;;;;0.82;0.45;;;16.20;60.20;;;;;;20641866;28;20081;-79
2022/11/08 01:02:26;;;;;;;0.75;0.40;;;16.20;60.20;;;;;;20669487;28;21243;-80
2022/11/08 01:12:26;;;;;;;0.75;0.43;;;16.20;60.30;;;;;;20642719;28;20053;-80
2022/11/08 01:22:27;;;;;;;0.57;0.50;;;16.20;60.30;;;;;;20650329;28;20393;-80
2022/11/08 01:32:28;;;;;;;1.58;0.77;;;16.20;60.40;;;;;;20636884;28;20038;-81
2022/11/08 01:42:29;;;;;;;0.98;0.63;;;16.20;60.40;;;;;;20641208;28;20801;-80
2022/11/08 01:52:36;;;;;;;0.90;0.45;;;16.20;60.40;;;;;;20634485;28;20125;-80
2022/11/08 02:02:39;;;;;;;0.73;0.40;;;16.20;60.40;;;;;;20674566;28;20072;-80
2022/11/08 02:12:41;;;;;;;0.73;0.50;;;16.20;60.50;;;;;;21025381;23;20045;-77
2022/11/08 02:22:55;;;;;;;1.15;0.73;;;16.20;60.60;;;;;;20676797;28;20038;-77
2022/11/08 02:32:57;;;;;;;0.98;0.55;;;16.20;60.60;;;;;;20687502;28;20042;-78
2022/11/08 02:42:58;;;;;;;1.35;0.55;;;16.10;60.50;;;;;;20717655;28;20045;-77
2022/11/08 02:52:59;;;;;;;0.93;0.40;;;16.10;60.60;;;;;;20693700;28;20079;-78
2022/11/08 03:03:01;;;;;;;2.00;0.50;;;16.20;60.70;;;;;;20685078;28;20476;-77
2022/11/08 03:13:03;;;;;;;1.05;0.47;;;16.20;60.70;;;;;;20689860;28;20047;-78
2022/11/08 03:23:05;;;;;;;1.23;0.55;;;16.20;60.70;;;;;;20697340;28;20488;-78
2022/11/08 03:33:06;;;;;;;1.13;0.50;;;16.10;60.70;;;;;;20702772;28;20416;-76
2022/11/08 03:43:07;;;;;;;0.88;0.50;;;16.10;60.80;;;;;;20712687;28;20104;-77
2022/11/08 03:53:07;;;;;;;1.08;0.45;;;16.20;60.80;;;;;;20708322;28;20037;-77
2022/11/08 04:03:08;;;;;;;1.17;0.45;;;16.20;60.80;;;;;;20675321;28;20057;-77
2022/11/08 04:23:28;;;;;;;1.45;0.55;;;16.10;60.80;;;;;;20688000;28;20183;-75
2022/11/08 04:33:29;;;;;;;0.85;0.60;;;16.10;60.90;;;;;;20701164;28;20030;-74
2022/11/08 04:43:30;;;;;;;0.88;0.68;;;16.10;60.90;;;;;;20701728;28;20041;-77
2022/11/08 04:53:31;;;;;;;0.40;0.40;;;16.00;60.90;;;;;;20672442;28;20026;-76
2022/11/08 05:03:32;;;;;;;1.52;0.47;;;16.10;61.00;;;;;;20663406;28;20092;-75
2022/11/08 05:13:33;;;;;;;0.30;0.25;;;16.00;61.00;;;;;;20707370;28;20524;-76
2022/11/08 05:23:33;;;;;;;1.13;0.40;;;16.00;61.00;;;;;;20701762;28;20038;-74
2022/11/08 05:33:34;;;;;;;1.65;0.60;;;16.00;61.00;;;;;;20682933;28;20089;-74
2022/11/08 05:43:35;;;;;;;0.77;0.40;;;16.00;61.00;;;;;;20678681;28;20125;-78
2022/11/08 05:53:35;;;;;;;1.20;0.60;;;16.00;61.10;;;;;;20717924;28;20034;-73
2022/11/08 06:03:36;;;;;;;2.53;0.52;;;16.00;61.10;;;;;;20696312;28;20045;-74
2022/11/08 06:13:38;;;;;;;0.97;0.50;;;16.00;61.10;;;;;;20702686;28;20125;-73
2022/11/08 06:23:39;;;;;;;0.63;0.43;;;16.00;61.20;;;;;;20701043;28;20292;-73
2022/11/08 06:33:40;;;;;;;2.70;0.50;;;16.00;61.80;;;;;;20690172;28;20064;-73
2022/11/08 06:43:41;;;;;;;0.95;0.40;;;16.00;61.20;;;;;;20682364;28;20049;-74
2022/11/08 06:53:41;;;;;;;1.90;0.57;;;16.00;61.20;;;;;;20694456;28;20030;-73
2022/11/08 07:03:42;;;;;;;1.50;0.40;;;16.00;61.30;;;;;;20720128;28;20500;-73
2022/11/08 07:13:43;;;;;;;0.40;0.40;;;15.90;61.20;;;;;;20673436;28;21241;-73
2022/11/08 07:23:43;;;;;;;0.60;0.35;;;15.90;61.30;;;;;;20689786;28;20403;-72
2022/11/08 07:33:44;;;;;;;1.00;0.52;;;15.90;61.30;;;;;;20684545;28;20491;-71
2022/11/08 07:43:44;;;;;;;1.20;0.50;;;15.90;61.30;;;;;;20689754;28;20389;-72
2022/11/08 07:53:50;;;;;;;0.22;0.22;;;15.90;61.30;;;;;;20688168;28;20468;-71
2022/11/08 08:03:50;;;;;;;1.83;0.60;;;15.90;61.40;;;;;;20664265;28;20066;-71
2022/11/08 08:13:51;;;;;;;2.70;0.50;;;15.90;61.40;;;;;;20691201;28;20323;-72
2022/11/08 08:23:52;;;;;;;0.50;0.40;;;15.90;61.40;;;;;;20661782;28;20109;-71
2022/11/08 08:33:52;;;;;;;0.98;0.50;;;15.80;61.50;;;;;;20646716;28;20047;-71
2022/11/08 08:43:54;;;;;;;0.32;0.20;;;15.80;61.50;;;;;;20692312;28;20034;-71
2022/11/08 08:53:55;;;;;;;0.77;0.57;;;15.90;61.50;;;;;;20679731;28;20427;-72
2022/11/08 09:03:57;;;;;;;0.40;0.30;;;15.90;61.40;;;;;;20666113;28;20041;-72
2022/11/08 09:13:57;;;;;;;0.28;0.22;;;15.90;61.40;;;;;;20668749;28;20033;-71
2022/11/08 09:23:58;;;;;;;0.90;0.52;;;16.00;61.30;;;;;;20680740;28;20034;-71
2022/11/08 09:33:59;;;;;;;0.60;0.40;;;16.10;61.00;;;;;;20669745;28;20026;-71
2022/11/08 09:44:14;;;;;;;0.43;0.30;;;16.20;60.60;;;;;;20705584;28;20656;-71
2022/11/08 09:54:22;;;;;;;0.30;0.30;;;16.40;60.20;;;;;;20666089;28;20030;-71
2022/11/08 10:04:25;;;;;;;0.25;0.25;;;16.60;59.80;;;;;;20689913;28;20077;-72
2022/11/08 10:14:50;;;;;;;1.48;0.30;;;16.70;59.30;;;;;;20707574;28;20054;-70
2022/11/08 10:24:57;;;;;;;0.30;0.20;;;16.90;58.90;;;;;;20720394;28;20074;-72
2022/11/08 10:35:05;;;;;;;0.70;0.40;;;17.00;58.50;;;;;;20693334;28;20046;-71
2022/11/08 10:45:07;;;;;;;0.30;0.30;;;17.10;58.20;;;;;;20717224;28;20038;-71
2022/11/08 10:55:08;;;;;;;0.25;0.20;;;17.20;57.90;;;;;;20694492;28;20602;-72
2022/11/08 11:05:18;;;;;;;0.30;0.30;;;17.30;57.70;;;;;;20697911;28;20030;-72
2022/11/08 11:15:19;;;;;;;0.40;0.30;;;17.30;57.40;;;;;;20656716;28;20035;-72
2022/11/08 11:25:21;;;;;;;0.20;0.20;;;17.40;57.20;;;;;;20679813;28;20068;-71
2022/11/08 11:35:23;;;;;;;0.40;0.30;;;17.50;57.00;;;;;;20683944;28;20441;-71
2022/11/08 11:45:31;;;;;;;0.20;0.10;;;17.60;56.70;;;;;;20692861;28;20049;-72
2022/11/08 11:55:45;;;;;;;0.50;0.40;;;17.70;56.40;;;;;;20684784;28;20109;-72
2022/11/08 12:06:10;;;;;;;0.25;0.25;;;17.80;56.70;;;;;;20690631;28;20041;-71
2022/11/08 12:16:20;;;;;;;0.40;0.32;;;17.90;55.80;;;;;;20693993;28;20038;-71
2022/11/08 12:26:48;;;;;;;0.43;0.25;;;18.00;55.60;;;;;;20684372;28;20108;-74
2022/11/08 12:36:57;;;;;;;0.22;0.22;;;18.00;55.40;;;;;;20675419;28;20469;-69
2022/11/08 12:47:20;;;;;;;0.22;0.22;;;18.10;55.30;;;;;;20672710;28;20121;-70
2022/11/08 12:57:26;;;;;;;0.50;0.30;;;18.10;55.30;;;;;;20675575;28;20129;-71
2022/11/08 13:07:30;;;;;;;0.57;0.30;;;18.10;55.20;;;;;;20696846;28;20038;-72
2022/11/08 13:17:31;;;;;;;0.10;0.10;;;18.10;55.20;;;;;;20705360;28;20408;-72
2022/11/08 13:27:35;;;;;;;2.07;0.20;;;18.10;55.20;;;;;;20688666;28;20074;-71
2022/11/08 13:38:00;;;;;;;0.57;0.30;;;18.10;55.20;;;;;;20709041;28;20288;-71
2022/11/08 13:48:27;;;;;;;0.20;0.20;;;18.00;55.20;;;;;;20707803;28;20057;-73
2022/11/08 13:58:43;;;;;;;0.10;0.10;;;18.00;55.40;;;;;;20699329;28;20034;-76
2022/11/08 14:09:02;;;;;;;1.53;0.23;;;18.00;55.40;;;;;;20682848;28;20038;-78
2022/11/08 14:19:21;;;;;;;0.52;0.32;;;18.00;55.40;;;;;;20694731;28;20038;-77
2022/11/08 14:29:23;;;;;;;0.20;0.13;;;18.00;55.50;;;;;;20685026;28;20065;-79
2022/11/08 14:39:26;;;;;;;0.30;0.17;;;18.00;55.60;;;;;;20701098;28;20506;-81
2022/11/08 14:49:31;;;;;;;0.20;0.20;;;17.90;55.60;;;;;;20701885;28;20382;-83
2022/11/08 14:59:31;;;;;;;0.52;0.30;;;17.90;55.70;;;;;;20680701;28;20129;-73
2022/11/08 15:09:34;;;;;;;0.40;0.17;;;17.90;55.80;;;;;;20682506;28;20115;-73
2022/11/08 15:19:44;;;;;;;0.40;0.30;;;17.90;55.80;;;;;;20687370;28;20064;-73
2022/11/08 15:29:49;;;;;;;0.52;0.20;;;17.90;55.90;;;;;;20683288;28;20045;-72
2022/11/08 15:39:49;;;;;;;0.13;0.13;;;17.90;56.00;;;;;;20692608;28;20034;-72
2022/11/08 15:49:50;;;;;;;0.10;0.10;;;17.80;56.00;;;;;;20675708;28;20113;-71
2022/11/08 15:59:50;;;;;;;0.20;0.20;;;17.80;56.00;;;;;;20696844;28;20041;-72
2022/11/08 16:09:51;;;;;;;0.47;0.20;;;17.80;56.10;;;;;;20688757;28;20048;-71
2022/11/08 16:19:51;;;;;;;0.17;0.17;;;17.70;56.10;;;;;;20672675;28;20041;-69
2022/11/08 16:29:52;;;;;;;0.30;0.20;;;17.70;56.20;;;;;;20675095;28;20126;-70
2022/11/08 16:39:53;;;;;;;0.20;0.20;;;17.70;56.30;;;;;;20693461;28;20030;-71
2022/11/08 16:49:55;;;;;;;2.13;0.30;;;17.70;56.40;;;;;;20692828;28;20045;-69
2022/11/08 16:59:55;;;;;;;0.45;0.25;;;17.70;56.50;;;;;;20700729;28;20034;-68
2022/11/08 17:09:56;;;;;;;0.57;0.30;;;17.70;56.60;;;;;;20685777;28;20034;-69
2022/11/08 17:19:56;;;;;;;7.57;1.05;;;17.70;56.80;;;;;;20695801;28;20407;-73
2022/11/08 17:29:57;;;;;;;0.67;0.30;;;17.60;56.90;;;;;;20675923;28;20042;-69
2022/11/08 17:39:58;;;;;;;3.25;0.60;;;17.80;57.00;;;;;;20678027;28;20312;-69
2022/11/08 17:49:59;;;;;;;2.97;0.50;;;17.70;57.10;;;;;;20691664;28;20388;-68
2022/11/08 17:59:59;;;;;;;5.88;1.85;;;17.70;57.30;;;;;;20690873;28;20057;-69
2022/11/08 18:10:01;;;;;;;2.33;0.47;;;17.70;57.50;;;;;;20708453;28;20053;-71
2022/11/08 18:20:02;;;;;;;4.97;1.25;;;17.70;57.50;;;;;;20665372;28;20107;-71
2022/11/08 18:30:03;;;;;;;0.45;0.13;;;17.70;57.50;;;;;;20659841;28;20448;-76
2022/11/08 18:40:04;;;;;;;0.75;0.32;;;17.60;57.60;;;;;;20619539;28;20046;-75
2022/11/08 18:50:06;;;;;;;2.40;0.40;;;17.50;57.60;;;;;;20639569;28;20121;-73
2022/11/08 19:00:07;;;;;;;1.75;0.50;;;17.50;57.70;;;;;;20669090;28;20153;-74
2022/11/08 19:10:08;;;;;;;2.78;0.50;;;17.40;57.70;;;;;;20650620;28;20030;-75
2022/11/08 19:20:09;;;;;;;2.38;0.60;;;17.40;57.80;;;;;;20654341;28;20050;-74
2022/11/08 19:30:11;;;;;;;2.97;0.80;;;17.40;57.90;;;;;;20673927;28;20062;-73
2022/11/08 19:40:12;;;;;;;0.28;0.28;;;17.40;58.00;;;;;;20641125;28;20030;-73
2022/11/08 19:50:12;;;;;;;2.17;0.70;;;17.30;58.00;;;;;;20665129;28;20605;-73
2022/11/08 20:00:14;;;;;;;2.00;0.50;;;17.30;58.10;;;;;;20680106;28;20037;-75
2022/11/08 20:10:15;;;;;;;3.50;0.32;;;17.30;58.10;;;;;;20660686;28;20037;-73
2022/11/08 20:20:15;;;;;;;0.73;0.50;;;17.30;58.20;;;;;;20657832;28;20040;-73
2022/11/08 20:30:16;;;;;;;1.38;0.50;;;17.20;58.30;;;;;;20665194;28;20113;-71
2022/11/08 20:40:16;;;;;;;1.23;0.47;;;17.30;58.40;;;;;;20665775;28;20473;-73
2022/11/08 20:50:17;;;;;;;1.42;0.65;;;17.20;58.40;;;;;;20666583;28;20026;-72
2022/11/08 21:00:18;;;;;;;1.80;0.47;;;17.20;58.50;;;;;;20654346;28;20026;-73
2022/11/08 21:10:19;;;;;;;1.23;0.60;;;17.20;58.50;;;;;;20649301;28;20030;-71
2022/11/08 21:20:19;;;;;;;2.83;0.40;;;17.20;58.50;;;;;;20660029;28;20716;-71
2022/11/08 21:30:20;;;;;;;0.60;0.40;;;17.20;58.60;;;;;;20664388;28;20034;-71
2022/11/08 21:40:20;;;;;;;0.63;0.20;;;17.10;58.60;;;;;;20648356;28;20133;-71
2022/11/08 21:50:21;;;;;;;1.92;0.47;;;17.10;58.70;;;;;;20662321;28;20117;-72
2022/11/08 22:00:21;;;;;;;0.95;0.25;;;17.10;58.70;;;;;;20647505;28;20034;-73
2022/11/08 22:10:23;;;;;;;0.98;0.40;;;17.10;58.80;;;;;;20638740;28;20034;-72
2022/11/08 22:20:24;;;;;;;0.88;0.40;;;17.10;58.80;;;;;;20668582;28;20125;-73
2022/11/08 22:30:25;;;;;;;1.30;0.32;;;17.10;58.90;;;;;;20685764;28;20122;-72
2022/11/08 22:40:25;;;;;;;0.80;0.30;;;17.10;59.00;;;;;;20673106;28;20038;-73
2022/11/08 22:50:26;;;;;;;0.68;0.30;;;17.10;59.00;;;;;;20653110;28;20045;-73
2022/11/08 23:00:27;;;;;;;0.85;0.57;;;17.10;59.00;;;;;;20676459;28;20034;-73
2022/11/08 23:10:28;;;;;;;0.60;0.32;;;17.10;59.10;;;;;;20663285;28;20035;-73
2022/11/08 23:51:26;;;;;;;1.13;0.43;;;17.00;59.30;;;;;;20668339;28;20045;-72
